Meamina — 2AMK7 — position and weather

sailwx.info

Track history (hours):
 
Tides and Currents Weather Stations Pressure Air Temp Water Temp Dewpoint Dewpoint Depression Visibility Wind Speed Wind Dir Waves Ship Positions

Meamina

Last reported at 2014-Aug-10 15:05 UTC. Time now 2014-Aug-20 14:39 UTC.
Position N 41°14' E 009°27'.
Warning: this ship's position is 9 days out of date.

Length 60 m; draft 3.2 m.

MMSI: 235061022.

Date/timePositionNaut miles runAvg speedWind from/ knotsBaromVisibWave heightAir tempDewpointWater temp
2014-Aug-10 15:05N 41°14' E 009°27'37 1.6
2014-Aug-09 16:14N 41°32' E 008°45'1315.0
2014-Aug-09 15:21N 41°45' E 008°39'1 1.5
2014-Aug-09 14:30N 41°45' E 008°41'0 0.0
2014-Aug-09 13:33N 41°45' E 008°41'1 0.6
2014-Aug-09 12:32N 41°46' E 008°41'2914.5
2014-Aug-09 10:30N 42°15' E 008°32'1 0.9
2014-Aug-09 09:31N 42°14' E 008°34'58 1.9
2014-Aug-08 03:31N 42°50' E 007°32'1413.2
2014-Aug-08 02:29N 42°59' E 007°17'1213.1
2014-Aug-08 01:33N 43°06' E 007°04'1313.4
2014-Aug-08 00:33N 43°14' E 006°49'9 8.3
2014-Aug-07 23:31N 43°16' E 006°38'0 0.0
2014-Aug-07 22:31N 43°16' E 006°38'0 0.0
2014-Aug-07 21:25N 43°16' E 006°38'0 0.0
2014-Aug-07 20:31N 43°16' E 006°38'0 0.0
2014-Aug-07 19:31N 43°16' E 006°38'3 2.7
2014-Aug-07 18:33N 43°17' E 006°41'4 3.5
2014-Aug-07 17:28N 43°14' E 006°40'0 0.0
2014-Aug-07 16:28N 43°14' E 006°40'0 0.0
2014-Aug-07 15:31N 43°14' E 006°40'0 0.0
2014-Aug-07 14:31N 43°14' E 006°40'0 0.0
2014-Aug-07 13:28N 43°14' E 006°40'0 0.0
2014-Aug-07 12:28N 43°14' E 006°40'0 0.0
2014-Aug-07 11:28N 43°14' E 006°40'4 3.9
2014-Aug-07 10:34N 43°17' E 006°40'2 1.8
2014-Aug-07 09:31N 43°16' E 006°37'0 0.0
2014-Aug-07 08:28N 43°16' E 006°37'0 0.0
2014-Aug-07 07:28N 43°16' E 006°37'0 0.0
2014-Aug-07 06:19N 43°16' E 006°37'0 0.0
2014-Aug-07 05:31N 43°16' E 006°37'0 0.0
2014-Aug-07 04:25N 43°16' E 006°37'0 0.0
2014-Aug-07 03:31N 43°16' E 006°37'0 0.0
2014-Aug-07 02:28N 43°16' E 006°37'0 0.0
2014-Aug-07 01:31N 43°16' E 006°37'0 0.0
2014-Aug-07 00:25N 43°16' E 006°37'0 0.0
2014-Aug-06 23:25N 43°16' E 006°37'0 0.0
2014-Aug-06 22:25N 43°16' E 006°37'0 0.0
2014-Aug-06 21:28N 43°16' E 006°37'0 0.0
2014-Aug-06 20:31N 43°16' E 006°37'0 0.0
2014-Aug-06 19:28N 43°16' E 006°37'0 0.0
2014-Aug-06 18:16N 43°16' E 006°37'0 0.0
2014-Aug-06 17:28N 43°16' E 006°37'0 0.0
2014-Aug-06 16:13N 43°16' E 006°37'0 0.0
2014-Aug-06 15:29N 43°16' E 006°37'0 0.2
2014-Aug-06 14:33N 43°17' E 006°37'4 3.6
2014-Aug-06 13:32N 43°14' E 006°40'0 0.0
2014-Aug-06 12:34N 43°14' E 006°40'0 0.0
2014-Aug-06 11:33N 43°14' E 006°40'1212.3
2014-Aug-06 10:33N 43°22' E 006°53'15 3.6
2014-Aug-06 06:14N 43°32' E 007°09'13 1.0
2014-Aug-05 17:07N 43°42' E 007°20'0 0.0
2014-Aug-05 16:23N 43°42' E 007°20'0 0.0
2014-Aug-05 15:31N 43°42' E 007°20'0 0.0
2014-Aug-05 14:21N 43°42' E 007°20'0 0.0
2014-Aug-05 13:29N 43°42' E 007°20'  
2014-Aug-03 09:25N 43°44' E 007°26'1112.2
2014-Aug-03 08:33N 43°36' E 007°16'1414.1
2014-Aug-03 07:33N 43°28' E 007°01'1413.9
2014-Aug-03 06:33N 43°20' E 006°45'6 2.7
2014-Aug-03 04:18N 43°16' E 006°38'0 0.0
2014-Aug-02 17:06N 43°16' E 006°38'0 0.0
2014-Aug-02 16:24N 43°16' E 006°38'2 1.1
2014-Aug-02 14:33N 43°17' E 006°40'4 3.7
2014-Aug-02 13:32N 43°14' E 006°40'0 0.0
2014-Aug-02 12:32N 43°14' E 006°40'0 0.0
2014-Aug-02 11:32N 43°14' E 006°40'0 0.0
2014-Aug-02 10:32N 43°14' E 006°40'0 0.0
2014-Aug-02 09:32N 43°13' E 006°40'0 0.0
2014-Aug-02 08:23N 43°13' E 006°40'4 4.9
2014-Aug-02 07:32N 43°16' E 006°45'1414.0
2014-Aug-02 06:33N 43°26' E 006°58'6 5.4
2014-Aug-02 05:22N 43°31' E 007°03'0 0.0
2014-Aug-02 00:04N 43°31' E 007°03'0 0.0
2014-Aug-01 23:16N 43°31' E 007°03'0 0.0
2014-Aug-01 22:10N 43°31' E 007°03'0 0.0
2014-Aug-01 21:28N 43°31' E 007°03'0 0.0
2014-Aug-01 18:22N 43°31' E 007°04'0 0.0
2014-Aug-01 16:28N 43°31' E 007°04'0 0.0
2014-Aug-01 14:33N 43°31' E 007°03'1 0.6
2014-Aug-01 13:33N 43°31' E 007°04'1514.5
2014-Aug-01 12:32N 43°36' E 007°23'6014.9
2014-Aug-01 08:28N 44°04' E 008°38'1314.0
2014-Aug-01 07:33N 44°10' E 008°54'1414.0
2014-Aug-01 06:33N 44°17' E 009°11'2 0.4
2014-Aug-01 00:24N 44°18' E 009°13'0 0.0
2014-Jul-31 23:09N 44°18' E 009°13'0 0.0
2014-Jul-31 19:21N 44°18' E 009°13'  
Track history (hours):
 
Tides and Currents Weather Stations Pressure Air Temp Water Temp Dewpoint Dewpoint Depression Visibility Wind Speed Wind Dir Waves Ship Positions

Meamina

Last reported at 2014-Aug-10 15:05 UTC. Time now 2014-Aug-20 14:39 UTC.
Position N 41°14' E 009°27'.
Warning: this ship's position is 9 days out of date.

Length 60 m; draft 3.2 m.

MMSI: 235061022.

Date/timePositionNaut miles runAvg speedWind from/ knotsBaromVisibWave heightAir tempDewpointWater temp
2014-Aug-10 15:05N 41°14' E 009°27'37 1.6
2014-Aug-09 16:14N 41°32' E 008°45'1315.0
2014-Aug-09 15:21N 41°45' E 008°39'1 1.5
2014-Aug-09 14:30N 41°45' E 008°41'0 0.0
2014-Aug-09 13:33N 41°45' E 008°41'1 0.6
2014-Aug-09 12:32N 41°46' E 008°41'2914.5
2014-Aug-09 10:30N 42°15' E 008°32'1 0.9
2014-Aug-09 09:31N 42°14' E 008°34'58 1.9
2014-Aug-08 03:31N 42°50' E 007°32'1413.2
2014-Aug-08 02:29N 42°59' E 007°17'1213.1
2014-Aug-08 01:33N 43°06' E 007°04'1313.4
2014-Aug-08 00:33N 43°14' E 006°49'9 8.3
2014-Aug-07 23:31N 43°16' E 006°38'0 0.0
2014-Aug-07 22:31N 43°16' E 006°38'0 0.0
2014-Aug-07 21:25N 43°16' E 006°38'0 0.0
2014-Aug-07 20:31N 43°16' E 006°38'0 0.0
2014-Aug-07 19:31N 43°16' E 006°38'3 2.7
2014-Aug-07 18:33N 43°17' E 006°41'4 3.5
2014-Aug-07 17:28N 43°14' E 006°40'0 0.0
2014-Aug-07 16:28N 43°14' E 006°40'0 0.0
2014-Aug-07 15:31N 43°14' E 006°40'0 0.0
2014-Aug-07 14:31N 43°14' E 006°40'0 0.0
2014-Aug-07 13:28N 43°14' E 006°40'0 0.0
2014-Aug-07 12:28N 43°14' E 006°40'0 0.0
2014-Aug-07 11:28N 43°14' E 006°40'4 3.9
2014-Aug-07 10:34N 43°17' E 006°40'2 1.8
2014-Aug-07 09:31N 43°16' E 006°37'0 0.0
2014-Aug-07 08:28N 43°16' E 006°37'0 0.0
2014-Aug-07 07:28N 43°16' E 006°37'0 0.0
2014-Aug-07 06:19N 43°16' E 006°37'0 0.0
2014-Aug-07 05:31N 43°16' E 006°37'0 0.0
2014-Aug-07 04:25N 43°16' E 006°37'0 0.0
2014-Aug-07 03:31N 43°16' E 006°37'0 0.0
2014-Aug-07 02:28N 43°16' E 006°37'0 0.0
2014-Aug-07 01:31N 43°16' E 006°37'0 0.0
2014-Aug-07 00:25N 43°16' E 006°37'0 0.0
2014-Aug-06 23:25N 43°16' E 006°37'0 0.0
2014-Aug-06 22:25N 43°16' E 006°37'0 0.0
2014-Aug-06 21:28N 43°16' E 006°37'0 0.0
2014-Aug-06 20:31N 43°16' E 006°37'0 0.0
2014-Aug-06 19:28N 43°16' E 006°37'0 0.0
2014-Aug-06 18:16N 43°16' E 006°37'0 0.0
2014-Aug-06 17:28N 43°16' E 006°37'0 0.0
2014-Aug-06 16:13N 43°16' E 006°37'0 0.0
2014-Aug-06 15:29N 43°16' E 006°37'0 0.2
2014-Aug-06 14:33N 43°17' E 006°37'4 3.6
2014-Aug-06 13:32N 43°14' E 006°40'0 0.0
2014-Aug-06 12:34N 43°14' E 006°40'0 0.0
2014-Aug-06 11:33N 43°14' E 006°40'1212.3
2014-Aug-06 10:33N 43°22' E 006°53'15 3.6
2014-Aug-06 06:14N 43°32' E 007°09'13 1.0
2014-Aug-05 17:07N 43°42' E 007°20'0 0.0
2014-Aug-05 16:23N 43°42' E 007°20'0 0.0
2014-Aug-05 15:31N 43°42' E 007°20'0 0.0
2014-Aug-05 14:21N 43°42' E 007°20'0 0.0
2014-Aug-05 13:29N 43°42' E 007°20'  
2014-Aug-03 09:25N 43°44' E 007°26'1112.2
2014-Aug-03 08:33N 43°36' E 007°16'1414.1
2014-Aug-03 07:33N 43°28' E 007°01'1413.9
2014-Aug-03 06:33N 43°20' E 006°45'6 2.7
2014-Aug-03 04:18N 43°16' E 006°38'0 0.0
2014-Aug-02 17:06N 43°16' E 006°38'0 0.0
2014-Aug-02 16:24N 43°16' E 006°38'2 1.1
2014-Aug-02 14:33N 43°17' E 006°40'4 3.7
2014-Aug-02 13:32N 43°14' E 006°40'0 0.0
2014-Aug-02 12:32N 43°14' E 006°40'0 0.0
2014-Aug-02 11:32N 43°14' E 006°40'0 0.0
2014-Aug-02 10:32N 43°14' E 006°40'0 0.0
2014-Aug-02 09:32N 43°13' E 006°40'0 0.0
2014-Aug-02 08:23N 43°13' E 006°40'4 4.9
2014-Aug-02 07:32N 43°16' E 006°45'1414.0
2014-Aug-02 06:33N 43°26' E 006°58'6 5.4
2014-Aug-02 05:22N 43°31' E 007°03'0 0.0
2014-Aug-02 00:04N 43°31' E 007°03'0 0.0
2014-Aug-01 23:16N 43°31' E 007°03'0 0.0
2014-Aug-01 22:10N 43°31' E 007°03'0 0.0
2014-Aug-01 21:28N 43°31' E 007°03'0 0.0
2014-Aug-01 18:22N 43°31' E 007°04'0 0.0
2014-Aug-01 16:28N 43°31' E 007°04'0 0.0
2014-Aug-01 14:33N 43°31' E 007°03'1 0.6
2014-Aug-01 13:33N 43°31' E 007°04'1514.5
2014-Aug-01 12:32N 43°36' E 007°23'6014.9
2014-Aug-01 08:28N 44°04' E 008°38'1314.0
2014-Aug-01 07:33N 44°10' E 008°54'1414.0
2014-Aug-01 06:33N 44°17' E 009°11'2 0.4
2014-Aug-01 00:24N 44°18' E 009°13'0 0.0
2014-Jul-31 23:09N 44°18' E 009°13'0 0.0
2014-Jul-31 19:21N 44°18' E 009°13'  

Dump ship's entire track history